Time;durP1;ratioP1;P1;durP2;ratioP2;P2;SDS_P1;SDS_P2;PMS_P1;PMS_P2;Temp;Humidity;BMP_temperature;BMP_pressure;BME280_temperature;BME280_humidity;BME280_pressure;Samples;Min_cycle;Max_cycle;Signal;HPM_P1;HPM_P2
2021/08/19 00:00:09;;;;;;;7.70;5.07;;;18.20;80.80;;;;;;4983797;28;20030;-78
2021/08/19 00:02:35;;;;;;;6.63;4.82;;;18.20;80.90;;;;;;4984196;28;20026;-77
2021/08/19 00:05:00;;;;;;;6.57;5.28;;;18.10;80.90;;;;;;4982515;28;20034;-76
2021/08/19 00:07:26;;;;;;;6.45;4.88;;;18.10;80.90;;;;;;4981782;28;20504;-78
2021/08/19 00:09:53;;;;;;;8.15;5.55;;;18.10;80.90;;;;;;4986923;28;20026;-77
2021/08/19 00:12:19;;;;;;;7.25;5.07;;;18.10;80.90;;;;;;4983763;28;20061;-77
2021/08/19 00:14:47;;;;;;;9.05;5.85;;;18.10;80.80;;;;;;4986021;28;20477;-76
2021/08/19 00:17:13;;;;;;;5.78;4.03;;;18.10;80.90;;;;;;4986777;28;20030;-77
2021/08/19 00:19:39;;;;;;;6.15;4.13;;;18.10;80.90;;;;;;4983222;28;20057;-76
2021/08/19 00:22:05;;;;;;;6.95;5.40;;;18.10;80.90;;;;;;4983679;28;20096;-76
2021/08/19 00:24:31;;;;;;;9.40;6.25;;;18.10;81.00;;;;;;4987799;28;20038;-77
2021/08/19 00:26:56;;;;;;;6.35;4.60;;;18.10;81.00;;;;;;4986486;28;20038;-77
2021/08/19 00:29:22;;;;;;;4.63;3.80;;;18.10;80.90;;;;;;4981265;28;20054;-77
2021/08/19 00:31:49;;;;;;;6.30;4.63;;;18.10;80.90;;;;;;4987426;28;20038;-77
2021/08/19 00:34:15;;;;;;;7.00;4.72;;;18.10;80.80;;;;;;4989674;28;20033;-77
2021/08/19 00:36:41;;;;;;;7.45;4.65;;;18.10;80.70;;;;;;4986983;28;20026;-76
2021/08/19 00:39:06;;;;;;;7.13;4.65;;;18.20;80.80;;;;;;4986599;28;20027;-76
2021/08/19 00:41:34;;;;;;;7.40;4.43;;;18.20;80.60;;;;;;4980766;28;20054;-76
2021/08/19 00:44:00;;;;;;;5.72;4.40;;;18.20;80.60;;;;;;4984246;28;20517;-76
2021/08/19 00:46:37;;;;;;;5.10;4.22;;;18.20;80.50;;;;;;4982228;28;20042;-76
2021/08/19 00:49:09;;;;;;;5.80;4.35;;;18.20;80.50;;;;;;4990689;28;20022;-76
2021/08/19 00:51:47;;;;;;;7.20;4.68;;;18.20;80.40;;;;;;4985623;28;20030;-76
2021/08/19 00:54:27;;;;;;;5.25;3.90;;;18.20;80.30;;;;;;4984145;28;20028;-76
2021/08/19 00:56:54;;;;;;;5.68;4.15;;;18.30;80.30;;;;;;4983451;28;20050;-76
2021/08/19 00:59:23;;;;;;;5.70;4.40;;;18.20;80.30;;;;;;4985209;28;20436;-76
2021/08/19 01:01:49;;;;;;;5.55;4.20;;;18.30;80.30;;;;;;4985254;28;20117;-76
2021/08/19 01:04:14;;;;;;;7.28;4.53;;;18.20;80.20;;;;;;4985743;28;20121;-75
2021/08/19 01:06:40;;;;;;;8.18;5.35;;;18.20;80.10;;;;;;4975976;28;20362;-76
2021/08/19 01:09:07;;;;;;;6.65;4.78;;;18.20;80.10;;;;;;4984836;28;20477;-76
2021/08/19 01:11:38;;;;;;;5.68;3.83;;;18.20;80.20;;;;;;4986195;28;20086;-76
2021/08/19 01:14:04;;;;;;;6.78;5.03;;;18.20;80.20;;;;;;4984345;28;20141;-76
2021/08/19 01:16:30;;;;;;;6.85;4.57;;;18.20;80.30;;;;;;4986756;28;20587;-77
2021/08/19 01:18:56;;;;;;;6.38;4.63;;;18.20;80.30;;;;;;4981419;28;20075;-77
2021/08/19 01:21:21;;;;;;;6.32;4.35;;;18.20;80.30;;;;;;4980058;28;20522;-76
2021/08/19 01:23:47;;;;;;;5.88;3.97;;;18.20;80.20;;;;;;4983999;28;20026;-77
2021/08/19 01:26:18;;;;;;;6.60;4.88;;;18.20;80.20;;;;;;4988215;28;20038;-77
2021/08/19 01:28:45;;;;;;;6.03;4.47;;;18.20;80.20;;;;;;4986954;28;20073;-75
2021/08/19 01:31:16;;;;;;;5.10;3.92;;;18.20;80.10;;;;;;4984388;28;20072;-76
2021/08/19 01:33:43;;;;;;;5.45;3.95;;;18.20;80.10;;;;;;5004507;28;20027;-77
2021/08/19 01:36:10;;;;;;;4.80;3.83;;;18.20;80.10;;;;;;4983730;28;20034;-77
2021/08/19 01:38:37;;;;;;;5.28;3.60;;;18.20;80.00;;;;;;4987805;28;20030;-76
2021/08/19 01:41:03;;;;;;;5.82;4.20;;;18.20;80.00;;;;;;4983848;28;20505;-78
2021/08/19 01:43:29;;;;;;;5.82;4.03;;;18.20;80.00;;;;;;4993448;28;20026;-77
2021/08/19 01:45:59;;;;;;;5.00;3.47;;;18.20;80.00;;;;;;4984653;28;20053;-76
2021/08/19 01:48:25;;;;;;;5.53;4.25;;;18.20;80.00;;;;;;4990073;28;20019;-76
2021/08/19 01:50:51;;;;;;;4.60;3.42;;;18.20;79.90;;;;;;4993103;28;20035;-77
2021/08/19 01:53:17;;;;;;;7.03;4.72;;;18.10;79.90;;;;;;4991469;28;20032;-77
2021/08/19 01:55:42;;;;;;;6.80;4.57;;;18.10;80.00;;;;;;4989162;28;20113;-77
2021/08/19 01:58:09;;;;;;;6.25;4.80;;;18.00;80.00;;;;;;4990178;28;20038;-76
2021/08/19 02:00:35;;;;;;;6.53;4.20;;;18.00;80.10;;;;;;4987092;28;20434;-76
2021/08/19 02:03:02;;;;;;;7.00;5.22;;;18.10;80.10;;;;;;4989122;28;20077;-78
2021/08/19 02:05:27;;;;;;;3.88;2.92;;;18.00;80.10;;;;;;4990183;28;20023;-77
2021/08/19 02:07:53;;;;;;;7.10;4.65;;;18.00;80.10;;;;;;4987517;28;20018;-78
2021/08/19 02:10:18;;;;;;;6.60;5.13;;;18.10;80.20;;;;;;4990950;28;20429;-78
2021/08/19 02:12:45;;;;;;;6.53;4.80;;;18.10;80.30;;;;;;4987457;28;20061;-76
2021/08/19 02:15:12;;;;;;;6.50;4.22;;;18.10;80.30;;;;;;4985687;28;20029;-76
2021/08/19 02:17:38;;;;;;;5.68;4.40;;;18.10;80.30;;;;;;4983373;28;20034;-77
2021/08/19 02:20:04;;;;;;;9.27;6.25;;;18.10;80.30;;;;;;4985754;28;20041;-75
2021/08/19 02:22:29;;;;;;;7.95;5.38;;;18.10;80.40;;;;;;4988448;28;20018;-77
2021/08/19 02:24:58;;;;;;;8.60;6.15;;;18.10;80.40;;;;;;4987606;28;20022;-77
2021/08/19 02:27:24;;;;;;;8.20;5.70;;;18.10;80.40;;;;;;4985328;28;20113;-77
2021/08/19 02:29:49;;;;;;;7.57;5.90;;;18.10;80.40;;;;;;4981429;28;20122;-77
2021/08/19 02:32:16;;;;;;;9.82;6.70;;;18.10;80.40;;;;;;4988367;28;20038;-76
2021/08/19 02:34:42;;;;;;;9.35;6.28;;;18.10;80.60;;;;;;4990363;28;20033;-77
2021/08/19 02:37:08;;;;;;;9.45;5.60;;;18.10;80.70;;;;;;4981934;28;20031;-77
2021/08/19 02:39:34;;;;;;;7.25;5.88;;;18.10;80.70;;;;;;4991557;28;20393;-77
2021/08/19 02:42:00;;;;;;;8.27;6.50;;;18.10;80.70;;;;;;4984795;28;20046;-76
2021/08/19 02:44:25;;;;;;;7.15;5.70;;;18.10;80.90;;;;;;4986757;28;20037;-77
2021/08/19 02:46:51;;;;;;;6.35;5.00;;;18.20;81.00;;;;;;4988729;28;20109;-76
2021/08/19 02:49:16;;;;;;;7.72;5.90;;;18.20;81.10;;;;;;4985525;28;20019;-75
2021/08/19 02:51:42;;;;;;;6.57;4.80;;;18.10;81.10;;;;;;4988707;28;20411;-74
2021/08/19 02:54:07;;;;;;;9.15;6.72;;;18.20;81.20;;;;;;4987364;28;20026;-74
2021/08/19 02:56:34;;;;;;;9.13;6.10;;;18.20;81.30;;;;;;4990587;28;20019;-74
2021/08/19 02:58:59;;;;;;;10.20;7.35;;;18.20;81.40;;;;;;4983008;28;20026;-75
2021/08/19 03:01:25;;;;;;;11.45;8.13;;;18.20;81.60;;;;;;4992029;28;20045;-74
2021/08/19 03:03:50;;;;;;;13.18;7.78;;;18.20;81.70;;;;;;4989741;28;20101;-76
2021/08/19 03:06:16;;;;;;;11.35;8.10;;;18.20;81.80;;;;;;4989559;28;20715;-74
2021/08/19 03:08:42;;;;;;;11.57;8.40;;;18.20;81.90;;;;;;4988631;28;20027;-74
2021/08/19 03:11:07;;;;;;;10.32;7.55;;;18.30;82.00;;;;;;4985751;28;20089;-75
2021/08/19 03:13:36;;;;;;;11.88;7.05;;;18.30;82.10;;;;;;4984063;28;20447;-74
2021/08/19 03:16:01;;;;;;;10.10;8.13;;;18.30;82.10;;;;;;4985921;28;20026;-75
2021/08/19 03:18:27;;;;;;;10.65;8.02;;;18.30;82.20;;;;;;4987039;28;20385;-75
2021/08/19 03:20:53;;;;;;;11.02;8.10;;;18.40;82.30;;;;;;4987833;28;20038;-75
2021/08/19 03:23:18;;;;;;;8.68;6.97;;;18.40;82.90;;;;;;4987353;28;20049;-76
2021/08/19 03:25:43;;;;;;;12.93;8.05;;;18.40;82.30;;;;;;4991173;28;20478;-75
2021/08/19 03:28:11;;;;;;;9.25;5.95;;;18.40;82.40;;;;;;4988322;28;20026;-74
2021/08/19 03:30:37;;;;;;;9.43;7.68;;;18.40;82.40;;;;;;4987826;28;20489;-75
2021/08/19 03:33:04;;;;;;;12.18;8.80;;;18.50;82.60;;;;;;4987933;28;20045;-75
2021/08/19 03:35:30;;;;;;;11.70;8.35;;;18.40;82.90;;;;;;4988663;28;20118;-75
2021/08/19 03:37:56;;;;;;;11.07;8.82;;;18.40;83.00;;;;;;4985877;28;20105;-76
2021/08/19 03:40:21;;;;;;;10.60;8.10;;;18.50;83.10;;;;;;4989325;28;20037;-76
2021/08/19 03:42:47;;;;;;;11.30;8.00;;;18.50;83.00;;;;;;4991451;28;20026;-75
2021/08/19 03:45:15;;;;;;;11.90;8.05;;;18.40;83.10;;;;;;4979280;28;20039;-75
2021/08/19 03:47:41;;;;;;;9.98;7.13;;;18.40;83.00;;;;;;4984911;28;20022;-76
2021/08/19 03:50:09;;;;;;;9.98;6.40;;;18.50;83.10;;;;;;4984065;28;20038;-76
2021/08/19 03:52:38;;;;;;;9.20;7.45;;;18.50;83.00;;;;;;4990583;28;20018;-75
2021/08/19 03:55:05;;;;;;;9.25;7.43;;;18.50;83.10;;;;;;4982656;28;20026;-76
2021/08/19 03:57:30;;;;;;;10.25;7.63;;;18.50;83.00;;;;;;4987291;28;20037;-76
2021/08/19 03:59:56;;;;;;;6.63;5.68;;;18.50;83.00;;;;;;4987100;28;20378;-76
2021/08/19 04:02:21;;;;;;;11.50;7.13;;;18.50;83.10;;;;;;4978255;28;20061;-76
2021/08/19 04:04:47;;;;;;;12.15;8.95;;;18.50;83.20;;;;;;4989554;28;20115;-77
2021/08/19 04:07:13;;;;;;;12.45;8.50;;;18.50;83.30;;;;;;4985596;28;20067;-76
2021/08/19 04:09:38;;;;;;;9.30;7.53;;;18.50;83.30;;;;;;4981541;28;20512;-76
2021/08/19 04:12:04;;;;;;;12.20;8.45;;;18.50;83.30;;;;;;4982677;28;20381;-76
2021/08/19 04:14:31;;;;;;;10.07;7.90;;;18.50;83.30;;;;;;4986497;28;20134;-76
2021/08/19 04:16:57;;;;;;;8.10;5.63;;;18.50;83.30;;;;;;4984905;28;20053;-76
2021/08/19 04:19:22;;;;;;;5.47;4.32;;;18.50;83.20;;;;;;4985019;28;20485;-75
2021/08/19 04:21:48;;;;;;;8.40;6.63;;;18.50;83.20;;;;;;4983403;28;20064;-76
2021/08/19 04:24:13;;;;;;;9.65;6.88;;;18.50;83.20;;;;;;4983028;28;20045;-76
2021/08/19 04:26:39;;;;;;;9.82;7.35;;;18.50;83.30;;;;;;4983733;28;20019;-77
2021/08/19 04:29:04;;;;;;;7.57;6.40;;;18.40;83.30;;;;;;4988253;28;20088;-76
2021/08/19 04:31:30;;;;;;;9.13;6.68;;;18.40;83.30;;;;;;4987741;28;20027;-76
2021/08/19 04:34:00;;;;;;;7.30;5.53;;;18.40;83.30;;;;;;4987919;28;20033;-76
2021/08/19 04:36:30;;;;;;;9.70;6.80;;;18.50;83.30;;;;;;4987185;28;20014;-75
2021/08/19 04:38:55;;;;;;;6.75;5.65;;;18.40;83.20;;;;;;4983947;28;20053;-76
2021/08/19 04:41:21;;;;;;;8.07;6.70;;;18.40;83.20;;;;;;4985630;28;21582;-77
2021/08/19 04:43:46;;;;;;;10.48;6.60;;;18.40;83.20;;;;;;4988826;28;20062;-75
2021/08/19 04:46:12;;;;;;;9.30;6.32;;;18.40;83.20;;;;;;4984592;28;20046;-78
2021/08/19 04:48:37;;;;;;;7.63;5.53;;;18.40;83.20;;;;;;4990907;28;20030;-77
2021/08/19 04:51:03;;;;;;;7.50;6.38;;;18.40;83.20;;;;;;4986367;28;20038;-76
2021/08/19 04:53:28;;;;;;;6.65;5.22;;;18.40;83.20;;;;;;4988852;28;20022;-76
2021/08/19 04:55:54;;;;;;;8.20;5.93;;;18.40;83.20;;;;;;4986648;28;20037;-75
2021/08/19 04:58:19;;;;;;;9.60;6.38;;;18.40;83.20;;;;;;4990216;28;20110;-76
2021/08/19 05:00:45;;;;;;;8.82;6.32;;;18.40;83.20;;;;;;4991883;28;20456;-78
2021/08/19 05:03:10;;;;;;;6.97;5.20;;;18.40;83.20;;;;;;4983578;28;20026;-76
2021/08/19 05:05:36;;;;;;;8.85;6.45;;;18.40;83.20;;;;;;4989161;28;20019;-77
2021/08/19 05:08:02;;;;;;;7.93;5.80;;;18.40;83.20;;;;;;4984683;28;20018;-77
2021/08/19 05:10:27;;;;;;;7.43;5.07;;;18.40;83.20;;;;;;4983901;28;20535;-77
2021/08/19 05:12:53;;;;;;;6.03;4.75;;;18.40;83.20;;;;;;4987399;28;20548;-76
2021/08/19 05:15:20;;;;;;;7.68;5.55;;;18.40;83.20;;;;;;4987826;28;20035;-77
2021/08/19 05:17:46;;;;;;;7.63;5.28;;;18.40;83.10;;;;;;4986762;28;20069;-77
2021/08/19 05:20:12;;;;;;;7.07;5.18;;;18.40;83.10;;;;;;4990166;28;20066;-78
2021/08/19 05:22:38;;;;;;;9.30;6.22;;;18.50;83.10;;;;;;4991758;28;20424;-77
2021/08/19 05:25:04;;;;;;;8.95;5.80;;;18.50;83.10;;;;;;4984801;28;20027;-76
2021/08/19 05:27:30;;;;;;;6.57;5.00;;;18.50;83.10;;;;;;4989857;28;20057;-79
2021/08/19 05:29:55;;;;;;;5.88;4.13;;;18.50;83.10;;;;;;4986971;28;20050;-76
2021/08/19 05:32:21;;;;;;;6.45;4.95;;;18.50;83.00;;;;;;4981679;28;21506;-76
2021/08/19 05:34:46;;;;;;;9.45;6.35;;;18.50;83.10;;;;;;4990355;28;20140;-75
2021/08/19 05:37:12;;;;;;;6.75;5.32;;;18.40;83.10;;;;;;4985890;28;20034;-77
2021/08/19 05:39:37;;;;;;;8.43;6.15;;;18.40;83.30;;;;;;4991392;28;20026;-76
2021/08/19 05:42:03;;;;;;;8.38;6.18;;;18.40;83.30;;;;;;4991005;28;20022;-76
2021/08/19 05:44:28;;;;;;;6.38;4.88;;;18.40;83.30;;;;;;4987797;28;20419;-76
2021/08/19 05:46:54;;;;;;;8.73;6.32;;;18.40;83.30;;;;;;4989909;28;20023;-76
2021/08/19 05:49:20;;;;;;;12.77;8.77;;;18.40;83.30;;;;;;4982105;28;20041;-77
2021/08/19 05:51:45;;;;;;;8.95;6.72;;;18.40;83.30;;;;;;4986777;28;20031;-77
2021/08/19 05:54:11;;;;;;;9.93;7.80;;;18.40;83.50;;;;;;4990438;28;20030;-76
2021/08/19 05:56:36;;;;;;;10.68;7.38;;;18.40;83.60;;;;;;4985641;28;20038;-77
2021/08/19 05:59:02;;;;;;;9.27;6.95;;;18.40;83.60;;;;;;4987624;28;20019;-78
2021/08/19 06:01:27;;;;;;;8.35;6.72;;;18.40;83.60;;;;;;4988224;28;20035;-77
2021/08/19 06:03:53;;;;;;;7.15;4.57;;;18.40;83.80;;;;;;4987345;28;20069;-77
2021/08/19 06:06:19;;;;;;;11.77;7.15;;;18.40;83.80;;;;;;4989174;28;20041;-77
2021/08/19 06:08:44;;;;;;;10.23;7.75;;;18.40;83.90;;;;;;4988799;28;20014;-76
2021/08/19 06:11:10;;;;;;;10.57;7.03;;;18.40;84.00;;;;;;4984865;28;20476;-77
2021/08/19 06:13:35;;;;;;;10.75;7.50;;;18.40;84.00;;;;;;4985588;28;20022;-77
2021/08/19 06:16:01;;;;;;;10.63;6.93;;;18.40;84.20;;;;;;4984349;28;20042;-77
2021/08/19 06:18:26;;;;;;;13.57;8.38;;;18.40;84.20;;;;;;4985998;28;20168;-75
2021/08/19 06:20:52;;;;;;;12.18;7.15;;;18.40;84.20;;;;;;4987755;28;20046;-75
2021/08/19 06:23:18;;;;;;;11.65;7.28;;;18.50;84.20;;;;;;4987616;28;20029;-76
2021/08/19 06:25:44;;;;;;;11.90;7.97;;;18.50;84.10;;;;;;4989542;28;20038;-77
2021/08/19 06:28:10;;;;;;;12.10;7.68;;;18.50;84.10;;;;;;4986189;28;20022;-79
2021/08/19 06:30:36;;;;;;;12.90;8.10;;;18.50;84.00;;;;;;4985650;28;20401;-77
2021/08/19 06:33:03;;;;;;;8.48;6.07;;;18.50;84.00;;;;;;4982036;28;20034;-78
2021/08/19 06:35:29;;;;;;;8.98;6.85;;;18.50;83.90;;;;;;4989108;28;20034;-80
2021/08/19 06:37:58;;;;;;;8.05;5.45;;;18.50;84.00;;;;;;4984186;28;20053;-80
2021/08/19 06:40:24;;;;;;;11.15;7.15;;;18.60;84.00;;;;;;4983062;28;20391;-76
2021/08/19 06:42:49;;;;;;;9.52;6.85;;;18.60;83.90;;;;;;4990758;28;20034;-79
2021/08/19 06:45:15;;;;;;;11.38;7.97;;;18.60;83.90;;;;;;4987000;28;20041;-79
2021/08/19 06:47:41;;;;;;;11.10;7.47;;;18.60;83.90;;;;;;4985315;28;20042;-79
2021/08/19 06:50:08;;;;;;;10.55;7.05;;;18.60;83.90;;;;;;4982300;28;20077;-78
2021/08/19 06:52:41;;;;;;;10.93;7.93;;;18.60;84.00;;;;;;4985510;28;20043;-79
2021/08/19 06:55:08;;;;;;;11.02;7.45;;;18.60;84.00;;;;;;4983570;28;20019;-78
2021/08/19 06:57:34;;;;;;;10.45;6.22;;;18.60;84.00;;;;;;4986746;28;20073;-78
2021/08/19 06:59:59;;;;;;;10.50;6.78;;;18.60;84.50;;;;;;4985871;28;20069;-79
2021/08/19 07:02:25;;;;;;;11.00;6.72;;;18.60;83.90;;;;;;4988809;28;20064;-77
2021/08/19 07:04:50;;;;;;;11.30;7.97;;;18.60;83.90;;;;;;4980034;28;20023;-83
2021/08/19 07:07:16;;;;;;;12.32;7.40;;;18.60;84.00;;;;;;4986416;28;20026;-80
2021/08/19 07:09:41;;;;;;;11.07;6.35;;;18.60;84.00;;;;;;4982665;28;20042;-78
2021/08/19 07:12:07;;;;;;;11.02;7.88;;;18.70;83.90;;;;;;4986885;28;20019;-78
2021/08/19 07:14:33;;;;;;;14.00;9.15;;;18.60;83.90;;;;;;4983429;28;20065;-78
2021/08/19 07:16:58;;;;;;;12.07;7.78;;;18.60;83.90;;;;;;4985225;28;20029;-78
2021/08/19 07:19:24;;;;;;;9.85;7.07;;;18.60;83.90;;;;;;4983570;28;20034;-77
2021/08/19 07:21:49;;;;;;;12.85;7.53;;;18.60;83.90;;;;;;4986500;28;20030;-76
2021/08/19 07:24:15;;;;;;;12.05;8.02;;;18.60;83.90;;;;;;4985983;28;20022;-77
2021/08/19 07:26:40;;;;;;;12.52;8.43;;;18.60;84.10;;;;;;4986174;28;20133;-76
2021/08/19 07:29:06;;;;;;;9.52;6.95;;;18.60;84.10;;;;;;4984303;28;20118;-76
2021/08/19 07:31:32;;;;;;;11.43;7.97;;;18.70;84.10;;;;;;4992267;28;20018;-77
2021/08/19 07:33:58;;;;;;;12.10;8.85;;;18.70;84.00;;;;;;4994028;28;20134;-77
2021/08/19 07:36:23;;;;;;;10.57;8.05;;;18.70;83.90;;;;;;4984338;28;20114;-77
2021/08/19 07:38:49;;;;;;;12.65;9.02;;;18.70;83.90;;;;;;4984253;28;20019;-78
2021/08/19 07:41:14;;;;;;;10.63;8.43;;;18.70;83.90;;;;;;4989594;28;20039;-78
2021/08/19 07:43:40;;;;;;;11.50;8.88;;;18.70;84.00;;;;;;4988985;28;20752;-76
2021/08/19 07:46:05;;;;;;;8.75;6.53;;;18.70;84.10;;;;;;4988103;28;20061;-77
2021/08/19 07:48:34;;;;;;;12.52;8.18;;;18.70;84.10;;;;;;4987100;28;20042;-76
2021/08/19 07:50:59;;;;;;;8.45;6.93;;;18.70;84.10;;;;;;4976489;28;20027;-76
2021/08/19 07:53:25;;;;;;;6.82;4.55;;;18.80;83.90;;;;;;4983521;28;20033;-77
2021/08/19 07:55:51;;;;;;;10.57;7.70;;;18.90;83.80;;;;;;4982055;28;20494;-78
2021/08/19 07:58:16;;;;;;;8.63;5.78;;;18.90;83.70;;;;;;4987250;28;20063;-76
2021/08/19 08:00:42;;;;;;;15.48;9.63;;;19.00;83.50;;;;;;4985955;28;20096;-75
2021/08/19 08:03:07;;;;;;;10.02;8.35;;;19.00;83.40;;;;;;4990831;28;20033;-78
2021/08/19 08:05:34;;;;;;;11.30;7.88;;;19.00;83.40;;;;;;4988852;28;20018;-78
2021/08/19 08:08:10;;;;;;;9.68;6.78;;;19.10;83.40;;;;;;4987833;28;20121;-79
2021/08/19 08:10:38;;;;;;;11.77;8.68;;;19.10;83.30;;;;;;4982551;28;20026;-81
2021/08/19 08:13:05;;;;;;;10.52;8.02;;;19.10;83.20;;;;;;4988992;28;20029;-80
2021/08/19 08:15:30;;;;;;;8.68;5.93;;;19.10;83.20;;;;;;4985131;28;20050;-77
2021/08/19 08:17:56;;;;;;;12.00;7.22;;;19.10;83.90;;;;;;4985620;28;20085;-77
2021/08/19 08:20:22;;;;;;;12.00;7.60;;;19.00;83.20;;;;;;4987329;28;20042;-76
2021/08/19 08:22:50;;;;;;;9.65;6.35;;;19.10;83.20;;;;;;4991131;28;20369;-77
2021/08/19 08:25:16;;;;;;;10.98;7.45;;;19.10;83.20;;;;;;4991879;28;20081;-78
2021/08/19 08:28:05;;;;;;;10.88;7.38;;;19.20;83.20;;;;;;4987291;28;20508;-76
2021/08/19 08:30:33;;;;;;;13.45;9.48;;;19.20;83.20;;;;;;4985223;28;20532;-76
2021/08/19 08:32:59;;;;;;;10.50;8.13;;;19.20;83.20;;;;;;4989207;28;20025;-75
2021/08/19 08:35:25;;;;;;;9.20;6.45;;;19.20;83.10;;;;;;4986993;28;20027;-77
2021/08/19 08:37:50;;;;;;;9.13;7.00;;;19.20;83.00;;;;;;4984092;28;20085;-78
2021/08/19 08:40:18;;;;;;;12.05;8.55;;;19.10;83.00;;;;;;4987757;28;20031;-78
2021/08/19 08:42:45;;;;;;;5.97;5.00;;;19.00;83.10;;;;;;4990200;28;20425;-78
2021/08/19 08:45:12;;;;;;;12.13;7.53;;;19.00;83.30;;;;;;4985904;28;20069;-79
2021/08/19 08:47:39;;;;;;;9.70;6.30;;;19.00;83.30;;;;;;4982594;28;20069;-80
2021/08/19 08:50:06;;;;;;;10.60;8.05;;;19.00;83.30;;;;;;4988466;28;20033;-80
2021/08/19 08:52:34;;;;;;;9.23;6.18;;;19.00;83.30;;;;;;4987676;28;20036;-79
2021/08/19 08:55:02;;;;;;;6.10;4.95;;;19.00;83.30;;;;;;4984010;28;20562;-78
2021/08/19 08:57:27;;;;;;;10.45;7.82;;;19.00;83.20;;;;;;4985945;28;20033;-77
2021/08/19 08:59:54;;;;;;;10.93;8.20;;;19.00;83.20;;;;;;4986848;28;20460;-77
2021/08/19 09:02:20;;;;;;;9.88;6.95;;;19.00;83.20;;;;;;4991217;28;20018;-79
2021/08/19 09:04:46;;;;;;;9.95;6.78;;;19.00;83.20;;;;;;4990480;28;20113;-78
2021/08/19 09:07:12;;;;;;;8.55;6.70;;;19.00;83.20;;;;;;4984149;28;20081;-78
2021/08/19 09:09:39;;;;;;;8.00;6.00;;;19.00;83.20;;;;;;4987852;28;20034;-79
2021/08/19 09:12:09;;;;;;;8.73;6.07;;;19.10;83.20;;;;;;4984102;28;20030;-77
2021/08/19 09:14:39;;;;;;;10.50;8.02;;;19.10;83.20;;;;;;4990367;28;20046;-80
2021/08/19 09:17:04;;;;;;;11.65;7.53;;;19.10;83.20;;;;;;4991858;28;20097;-76
2021/08/19 09:19:34;;;;;;;7.80;6.80;;;19.10;83.30;;;;;;4987618;28;20032;-79
2021/08/19 09:22:02;;;;;;;9.43;6.50;;;19.10;83.20;;;;;;4986692;28;20030;-78
2021/08/19 09:24:30;;;;;;;7.22;5.93;;;19.20;83.40;;;;;;4985558;28;20026;-77
2021/08/19 09:27:12;;;;;;;6.13;4.78;;;19.10;83.40;;;;;;4983805;28;20030;-76
2021/08/19 09:29:38;;;;;;;7.80;6.35;;;19.10;83.30;;;;;;4983913;28;20022;-77
2021/08/19 09:32:18;;;;;;;10.57;7.32;;;19.10;83.10;;;;;;4986406;28;20072;-77
2021/08/19 09:34:49;;;;;;;12.05;7.55;;;19.10;83.10;;;;;;4990437;28;20034;-77
2021/08/19 09:37:20;;;;;;;10.20;7.20;;;19.10;83.30;;;;;;4986208;28;20019;-79
2021/08/19 09:39:56;;;;;;;8.50;6.53;;;19.10;83.40;;;;;;4987429;28;20122;-79
2021/08/19 09:42:40;;;;;;;7.30;5.95;;;19.10;83.30;;;;;;4989826;28;20026;-77
2021/08/19 09:45:25;;;;;;;8.13;6.38;;;19.20;83.30;;;;;;4983920;28;20041;-76
2021/08/19 09:47:51;;;;;;;7.32;5.32;;;19.20;83.20;;;;;;4992820;28;20038;-78
2021/08/19 09:50:18;;;;;;;8.55;6.05;;;19.10;83.00;;;;;;4999741;28;20037;-77
2021/08/19 09:52:49;;;;;;;7.93;5.88;;;19.20;83.10;;;;;;4979752;28;20106;-77
2021/08/19 09:55:29;;;;;;;7.40;5.63;;;19.10;83.10;;;;;;4988314;28;20022;-79
2021/08/19 09:57:57;;;;;;;6.25;4.75;;;19.10;83.10;;;;;;4990529;28;20027;-78
2021/08/19 10:00:38;;;;;;;5.03;4.07;;;19.10;83.10;;;;;;4995178;28;20096;-77
2021/08/19 10:03:04;;;;;;;8.80;5.07;;;19.20;83.10;;;;;;4988079;28;20045;-76
2021/08/19 10:05:30;;;;;;;7.60;5.07;;;19.20;83.00;;;;;;4987525;28;20026;-79
2021/08/19 10:07:59;;;;;;;5.35;4.20;;;19.10;83.00;;;;;;4983829;28;20023;-77
2021/08/19 10:10:26;;;;;;;6.43;5.45;;;19.10;83.00;;;;;;4988550;28;20486;-78
2021/08/19 10:12:52;;;;;;;5.32;4.20;;;19.10;83.70;;;;;;4985399;28;20084;-78
2021/08/19 10:15:19;;;;;;;7.38;5.65;;;19.10;83.10;;;;;;4988510;28;20031;-78
2021/08/19 10:17:54;;;;;;;10.35;6.93;;;19.00;83.10;;;;;;4983253;28;20089;-80
2021/08/19 10:20:25;;;;;;;6.95;6.03;;;19.00;83.20;;;;;;4989586;28;20109;-78
2021/08/19 10:22:54;;;;;;;6.53;4.70;;;19.00;83.20;;;;;;4993979;28;20017;-77
2021/08/19 10:25:19;;;;;;;6.85;5.28;;;19.00;83.30;;;;;;4991005;28;20440;-78
2021/08/19 10:27:46;;;;;;;6.22;4.80;;;18.90;83.40;;;;;;4992315;28;20077;-78
2021/08/19 10:30:22;;;;;;;5.28;4.20;;;18.90;83.40;;;;;;4991147;28;20022;-77
2021/08/19 10:32:52;;;;;;;8.23;6.28;;;19.00;83.40;;;;;;4988180;28;20022;-78
2021/08/19 10:35:26;;;;;;;5.32;4.70;;;19.00;83.40;;;;;;4987246;28;20061;-78
2021/08/19 10:37:51;;;;;;;6.65;4.50;;;18.90;83.50;;;;;;4982460;28;20026;-77
2021/08/19 10:40:23;;;;;;;6.13;5.30;;;18.90;83.50;;;;;;4984337;28;20065;-77
2021/08/19 10:42:53;;;;;;;6.40;4.85;;;18.90;83.50;;;;;;4981898;28;20563;-76
2021/08/19 10:45:42;;;;;;;7.03;5.13;;;18.90;83.50;;;;;;4982180;28;20041;-77
2021/08/19 10:48:19;;;;;;;8.48;6.50;;;18.90;83.60;;;;;;4977918;28;20129;-76
2021/08/19 10:50:46;;;;;;;5.85;5.10;;;18.90;83.60;;;;;;4984925;28;20038;-76
2021/08/19 10:53:21;;;;;;;5.72;4.68;;;18.90;83.60;;;;;;4978809;28;20030;-78
2021/08/19 10:55:48;;;;;;;5.25;3.95;;;18.90;83.70;;;;;;4981875;28;20061;-78
2021/08/19 10:58:37;;;;;;;3.65;3.20;;;19.00;83.70;;;;;;4984369;28;20117;-80
2021/08/19 11:01:14;;;;;;;4.63;3.58;;;19.00;83.60;;;;;;4982615;28;20042;-77
2021/08/19 11:03:45;;;;;;;4.82;4.13;;;19.00;83.60;;;;;;4985779;28;20089;-79
2021/08/19 11:06:23;;;;;;;3.15;2.67;;;19.00;83.60;;;;;;4999703;28;20031;-76
2021/08/19 11:08:52;;;;;;;7.53;5.28;;;19.00;83.60;;;;;;4981816;28;20041;-78
2021/08/19 11:11:31;;;;;;;5.10;4.22;;;19.00;83.50;;;;;;4984747;28;20117;-79
2021/08/19 11:14:02;;;;;;;7.65;5.60;;;19.00;83.60;;;;;;4979078;28;20043;-80
2021/08/19 11:16:29;;;;;;;5.53;5.00;;;19.00;83.70;;;;;;4980768;28;20130;-78
2021/08/19 11:19:09;;;;;;;5.10;4.40;;;19.00;83.80;;;;;;4986663;28;20038;-77
2021/08/19 11:21:34;;;;;;;6.93;5.63;;;19.00;83.70;;;;;;4983530;28;20093;-79
2021/08/19 11:24:01;;;;;;;5.90;5.15;;;19.00;83.80;;;;;;4982735;28;20038;-80
2021/08/19 11:26:26;;;;;;;7.55;5.07;;;19.00;83.90;;;;;;4979951;28;20026;-80
2021/08/19 11:28:53;;;;;;;6.68;5.35;;;19.00;83.80;;;;;;4984714;28;20027;-78
2021/08/19 11:31:24;;;;;;;5.80;4.30;;;19.00;83.80;;;;;;4986224;28;20061;-79
2021/08/19 11:34:04;;;;;;;6.50;5.50;;;19.10;83.70;;;;;;4987283;28;20469;-80
2021/08/19 11:36:31;;;;;;;5.75;5.00;;;19.10;83.70;;;;;;4978513;28;20046;-77
2021/08/19 11:39:06;;;;;;;7.40;5.55;;;19.20;83.50;;;;;;4979863;28;20493;-77
2021/08/19 11:41:33;;;;;;;9.75;6.45;;;19.20;83.40;;;;;;4981749;28;20034;-77
2021/08/19 11:44:01;;;;;;;7.97;6.38;;;19.30;83.40;;;;;;4981654;28;20026;-78
2021/08/19 11:46:28;;;;;;;7.65;6.85;;;19.30;83.40;;;;;;4979634;28;20034;-76
2021/08/19 11:49:12;;;;;;;7.28;6.57;;;19.40;83.30;;;;;;4978633;28;20038;-79
2021/08/19 11:51:39;;;;;;;7.70;6.80;;;19.40;83.10;;;;;;4980867;28;20101;-78
2021/08/19 11:54:12;;;;;;;10.23;8.10;;;19.40;83.00;;;;;;4984459;28;20034;-78
2021/08/19 11:56:43;;;;;;;7.20;6.18;;;19.50;83.00;;;;;;4983736;28;20030;-76
2021/08/19 11:59:10;;;;;;;8.50;7.57;;;19.50;83.00;;;;;;4988636;28;20049;-77
2021/08/19 12:01:38;;;;;;;6.35;5.75;;;19.50;82.90;;;;;;4980327;28;20389;-78
2021/08/19 12:04:08;;;;;;;6.22;5.22;;;19.50;82.90;;;;;;4979725;28;20031;-78
2021/08/19 12:06:34;;;;;;;8.68;6.85;;;19.50;82.80;;;;;;4980513;28;20034;-79
2021/08/19 12:09:05;;;;;;;10.27;7.35;;;19.50;82.70;;;;;;4983319;28;20605;-79
2021/08/19 12:11:37;;;;;;;8.63;6.93;;;19.50;82.50;;;;;;4983526;28;20029;-76
2021/08/19 12:14:04;;;;;;;7.22;6.32;;;19.40;82.60;;;;;;4987641;28;20508;-78
2021/08/19 12:16:30;;;;;;;7.20;6.05;;;19.40;82.60;;;;;;4979642;28;20026;-78
2021/08/19 12:19:16;;;;;;;8.30;6.35;;;19.30;82.70;;;;;;4984073;28;20543;-78
2021/08/19 12:21:48;;;;;;;4.80;4.30;;;19.30;82.70;;;;;;4980691;28;20034;-78
2021/08/19 12:24:19;;;;;;;8.90;7.95;;;19.30;82.60;;;;;;4978522;28;20034;-81
2021/08/19 12:27:08;;;;;;;7.30;5.97;;;19.30;82.60;;;;;;4979279;28;20041;-79
2021/08/19 12:29:36;;;;;;;6.88;5.57;;;19.30;82.60;;;;;;4980484;28;20485;-77
2021/08/19 12:32:02;;;;;;;7.78;6.35;;;19.30;82.70;;;;;;4979487;28;21397;-76
2021/08/19 12:34:29;;;;;;;5.95;4.45;;;19.20;82.50;;;;;;4979598;28;20397;-77
2021/08/19 12:37:08;;;;;;;5.72;4.80;;;19.30;82.50;;;;;;4978873;28;20377;-79
2021/08/19 12:39:44;;;;;;;6.10;5.00;;;19.30;82.50;;;;;;4979467;28;20031;-78
2021/08/19 12:42:12;;;;;;;7.15;5.53;;;19.30;83.00;;;;;;4981642;28;20777;-77
2021/08/19 12:44:38;;;;;;;5.32;4.50;;;19.30;82.40;;;;;;4983432;28;20043;-76